OIZJ  Jask  Airport

Jask, Iran

Add Bookmark
ICAO OIZJ
Type Airport
Status Operational
Latitude
25° 39' 12" N
25.653601
Longitude
57° 47' 57" E
57.799301
Local (GMT +3.5 ) UTC
Dec 6, 2016 04:17 am Dec 6, 2016 00:47
Sunrise-Sunset Local UTC
Begin Civil Twilight 05:45 am 02:15
Sunrise 06:10 am 02:40
Sunset 04:49 pm 13:19
End Civil Twilight 05:14 pm 13:44
VFR
VFR
MVFR
MVFR
IFR
IFR
LIFR
LIFR
Unknown
No Data

Current Weather

METAR Observed IFR
OIZJ 060000Z 12002KT 3000 BR SCT015 23/22 Q1014 Tue, Dec 6, 2016 @ 00:00 UTC
(47 Minutes ago)
Instrument Flight Rules
Wind Visibility Clouds Conditions
120° at 2 knots (4 kph) 2,993 m
  • Scattered at 1,500 ft AGL
  • Mist
Temperatures Readings Precipitation
Current Temp
23°C
73°F
Dewpoint
22°C
72°F
Humidity 94%
Altimeter 29.94" Hg
Sea Level Pressure 1,014 mb
Field Elevation
4 m
13 ft
None Recorded
-
-

CheckWX.com is intended as a tool to help pilots better visualize weather data. It is not intended as a substitute for an official weather briefing obtained from a Flight Service Station. CheckWX.com does not meet the FAA requirements for an official pre-flight weather briefing. Therefore, it's important that pilots still call and obtain an official FSS pre-flight weather briefing.

© 2007-2016 CheckWX.com
00:47:54 UTC